GW6599 Weather Reports


time (UTC)temp
F
wind
direction
speed
knots
gust
knots
rain 1hr
in
rain 24hr
in
rain mn
in
humidity
%
barometer
mb
20260906120622 71 0.0 0.0 0.00 1.69 0.00 98
20260906120122 71 0.0 0.0 0.00 1.69 0.00 98
20260906115622 71 0.0 0.0 0.00 1.69 0.00 98
20260906115122 71 0.0 0.0 0.00 1.69 0.00 98
20260906114642 71 276 0.9 1.7 0.00 1.69 0.00 98
20260906114122 71 0.0 0.0 0.00 1.69 0.00 98
20260906113703 71 0.0 0.0 0.00 1.69 0.00 98
20260906113122 71 0.0 0.0 0.00 1.69 0.00 98
20260906112623 71 9 0.0 0.9 0.00 1.69 0.00 98
20260906112125 71 0.0 0.0 0.00 1.69 0.00 98
20260906111622 71 0.0 0.0 0.00 1.69 0.00 98
20260906111123 71 280 0.9 0.9 0.00 1.69 0.00 98
20260906110623 71 308 0.9 0.9 0.00 1.69 0.00 98
20260906110123 71 285 0.0 0.0 0.00 1.69 0.00 98
20260906105703 71 283 1.7 1.7 0.00 1.69 0.00 98
20260906105143 71 239 1.7 2.6 0.00 1.69 0.00 98
20260906104623 71 0.0 0.0 0.00 1.69 0.00 98
20260906104023 71 0.0 0.0 0.00 1.69 0.00 98
20260906103523 71 0.0 0.0 0.00 1.69 0.00 98
20260906103024 71 291 1.7 1.7 0.00 1.69 0.00 98
20260906102524 71 120 0.0 0.9 0.00 1.69 0.00 98
20260906102044 71 290 1.7 1.7 0.00 1.69 0.00 98
20260906101525 71 305 1.7 1.7 0.00 1.69 0.00 98
20260906101025 71 224 0.9 1.7 0.00 1.69 0.00 98
20260906100544 71 293 0.0 0.0 0.00 1.69 0.00 98
20260906100024 71 0.0 0.0 0.00 1.69 0.00 98
20260906095524 71 273 0.9 1.7 0.00 1.69 0.00 98
20260906095025 71 0.0 0.0 0.00 1.69 0.00 98
20260906094525 71 287 1.7 1.7 0.00 1.69 0.00 98
20260906094024 71 295 0.0 0.0 0.00 1.69 0.00 98
20260906093545 71 322 0.9 1.7 0.00 1.69 0.00 98
20260906093025 71 306 1.7 1.7 0.00 1.69 0.00 98
20260906092525 71 0.0 0.0 0.00 1.69 0.00 98
20260906092047 71 0.0 0.0 0.00 1.69 0.00 98
20260906091525 71 0.0 0.0 0.00 1.69 0.00 98
20260906091025 71 302 1.7 1.7 0.00 1.69 0.00 98
20260906090525 71 0.0 0.0 0.00 1.69 0.00 98
20260906090025 71 256 0.0 0.0 0.00 1.69 0.00 98
20260906085526 71 108 0.0 0.0 0.00 1.69 0.00 98
20260906085026 71 0.0 0.0 0.00 1.69 0.00 98
20260906084608 71 0.0 0.0 0.00 1.69 0.00 98
20260906084025 71 0.0 0.0 0.00 1.69 0.00 98
20260906083545 71 0.0 0.0 0.00 1.69 0.00 98
20260906083026 71 117 0.9 0.9 0.00 1.69 0.00 97
20260906082526 71 0.0 0.0 0.00 1.69 0.00 98
20260906082026 71 278 1.7 1.7 0.00 1.69 0.00 98
20260906081526 71 284 1.7 1.7 0.00 1.69 0.00 97
20260906081046 71 301 1.7 1.7 0.00 1.69 0.00 97
20260906080526 71 291 0.9 1.7 0.00 1.69 0.00 97
20260906080047 71 48 0.9 0.9 0.00 1.69 0.00 97
20260906075707 71 256 0.0 0.9 0.00 1.69 0.00 98
20260906075027 71 32 0.9 0.9 0.00 1.69 0.00 98
20260906074526 71 110 0.0 0.0 0.00 1.69 0.00 97
20260906074026 71 288 0.9 1.7 0.00 1.69 0.00 97
20260906073527 71 128 0.9 1.7 0.00 1.69 0.00 98
20260906073027 71 0.0 0.0 0.00 1.69 0.00 97
20260906072527 71 264 0.0 0.0 0.00 1.69 0.00 97
20260906072028 71 276 1.7 1.7 0.00 1.69 0.00 97
20260906071527 71 298 1.7 1.7 0.00 1.69 0.00 97
20260906071027 71 226 0.9 1.7 0.00 1.69 0.00 97
20260906070527 71 261 0.9 1.7 0.00 1.69 0.00 97
20260906070031 71 280 1.7 1.7 0.00 1.69 0.00 97
20260906065527 71 295 1.7 1.7 0.00 1.69 0.00 97
20260906065027 71 0.0 0.0 0.00 1.69 0.00 97
20260906064527 71 0.0 0.0 0.00 1.69 0.00 97
20260906064028 0 59 0.9 0.9 0.00 1.69 0.00
20260906063548 71 341 0.9 1.7 0.00 1.69 0.00 97
20260906063028 71 312 1.7 1.7 0.00 1.69 0.00 97
20260906062528 71 302 0.0 0.0 0.00 1.69 0.00 97
20260906062028 71 0.0 0.0 0.00 1.69 0.00 97
20260906061528 71 342 0.0 0.0 0.00 1.69 0.00 97
20260906061028 71 0.0 0.0 0.00 1.69 0.00 97
20260906060528 71 0.0 0.0 0.00 1.69 0.00 97
20260906060029 71 276 1.7 1.7 0.00 1.69 0.00 97
20260906055529 71 299 1.7 1.7 0.00 1.69 0.00 97
20260906055029 71 294 1.7 1.7 0.00 1.69 0.00 97
20260906054528 71 288 0.0 0.0 0.00 1.69 0.00 97
20260906054028 72 289 1.7 1.7 0.00 1.69 0.00 97
20260906053529 71 258 1.7 1.7 0.00 1.69 0.00 97
20260906053029 71 340 0.0 0.9 0.00 1.69 0.00 97
20260906052529 71 240 0.9 1.7 0.00 1.69 0.00 97
20260906052029 72 15 0.0 0.9 0.00 1.69 0.00 97
20260906051549 71 57 0.0 0.9 0.00 1.69 0.00 97
20260906051051 71 85 0.9 1.7 0.00 1.69 0.00 97
20260906050529 72 1 0.0 0.0 0.00 1.69 0.00 97
20260906045729 72 0.0 0.0 0.00 1.69 0.00 97
20260906045229 72 0.0 0.0 0.00 1.69 0.00 97
20260906044729 72 0.0 0.0 0.00 1.69 0.00 97
20260906044229 72 0.0 0.0 0.00 1.69 0.00 97
20260906043730 72 0.0 0.0 0.00 1.69 0.00 97
20260906043230 72 0.0 0.0 0.00 1.69 0.00 97
20260906042715 72 101 0.0 0.9 0.00 1.69 0.00 97
20260906042230 72 0.0 0.0 0.00 1.69 0.00 97
20260906041756 72 302 0.9 0.9 0.00 1.69 0.00 97
20260906041250 72 0.0 0.0 0.00 1.69 0.00 97
20260906040715 72 0.0 0.0 0.00 1.69 0.00 97
20260906040215 72 0.0 0.0 0.00 1.69 0.00 97
20260906035715 72 263 0.9 1.7 0.00 1.69 1.69 97
20260906035238 72 261 0.9 1.7 0.00 1.69 1.69 97
20260906034715 72 289 0.9 0.9 0.00 1.69 1.69 97
20260906034216 72 0.0 0.0 0.00 1.69 1.69 97
20260906033716 72 0.0 0.0 0.00 1.69 1.69 97
20260906033216 72 0.0 0.0 0.00 1.69 1.69 97
20260906032716 72 259 0.9 1.7 0.00 1.69 1.69 97
20260906032217 72 277 0.9 0.9 0.00 1.69 1.69 97
20260906031716 72 314 0.0 0.9 0.00 1.69 1.69 97
20260906031217 72 0.0 0.0 0.00 1.69 1.69 97
20260906030717 72 0.0 0.0 0.00 1.69 1.69 97
20260906030217 72 0.0 0.0 0.00 1.69 1.69 97
20260906025838 73 290 0.9 1.7 0.00 1.69 1.69 97
20260906025217 73 0.0 0.0 0.00 1.69 1.69 97
20260906024717 73 0.0 0.0 0.00 1.69 1.69 97
20260906024237 73 0.0 0.0 0.00 1.69 1.69 97
20260906023718 72 264 0.9 0.9 0.00 1.69 1.69 97
20260906023237 72 250 0.9 1.7 0.00 1.69 1.69 97
20260906022717 72 342 0.0 0.0 0.00 1.69 1.69 97
20260906022237 72 291 0.9 1.7 0.00 1.69 1.69 97
20260906021717 72 0.0 0.0 0.00 1.69 1.69 97
20260906021218 72 308 0.0 0.9 0.00 1.69 1.69 97
20260906020717 72 260 0.9 1.7 0.00 1.69 1.69 97
20260906020218 73 0.0 0.0 0.00 1.69 1.69 97
20260906015718 73 306 0.0 0.9 0.00 1.69 1.69 97
20260906015218 73 9 0.0 0.0 0.00 1.69 1.69 97
20260906014738 73 295 0.9 1.7 0.00 1.69 1.69 96
20260906014218 73 296 1.7 1.7 0.00 1.69 1.69 96
20260906013718 73 0.0 0.0 0.00 1.69 1.69 96
20260906013218 73 0.0 0.0 0.00 1.69 1.69 96
20260906012718 73 263 0.0 1.7 0.00 1.69 1.69 96
20260906012239 73 279 0.9 1.7 0.00 1.69 1.69 96
20260906011718 73 334 0.0 0.0 0.00 1.69 1.69 96
20260906011216 73 294 0.9 1.7 0.00 1.69 1.69 96
20260906010739 73 294 0.9 1.7 0.00 1.69 1.69 96
20260906010216 73 275 0.0 0.9 0.00 1.69 1.69 96
20260906005736 73 261 1.7 1.7 0.00 1.69 1.69 96
20260906005216 73 283 0.9 1.7 0.00 1.69 1.69 96
20260906004716 73 299 0.0 0.9 0.00 1.69 1.69 96
20260906004216 73 310 0.9 2.6 0.00 1.69 1.69 96
20260906003716 73 271 1.7 3.5 0.00 1.69 1.69 96
20260906003216 73 285 1.7 2.6 0.00 1.69 1.69 96
20260906002716 73 254 1.7 2.6 0.00 1.69 1.69 96
20260906002217 73 57 0.0 0.9 0.00 1.69 1.69 96
20260906001717 73 260 1.7 3.5 0.00 1.69 1.69 96
20260906001237 73 0.0 0.0 0.00 1.69 1.69 96
20260906000717 73 65 0.0 0.9 0.00 1.69 1.69 96
20260906000219 73 257 0.0 0.0 0.00 1.69 1.69 96
20260905235717 73 301 0.9 1.7 0.00 1.69 1.69 96
20260905235217 73 0.0 0.0 0.00 1.69 1.69 96
20260905234717 73 0.0 0.0 0.00 1.69 1.69 96
20260905234217 73 0.0 0.0 0.01 1.69 1.69 96
20260905233718 73 297 0.9 1.7 0.02 1.69 1.69 96
20260905233217 73 0.0 0.0 0.04 1.69 1.69 96
20260905232717 73 115 0.0 0.0 0.12 1.69 1.69 95
20260905232217 73 124 0.0 0.0 0.34 1.69 1.69 95
20260905231737 73 120 0.0 0.0 0.63 1.69 1.69 95
20260905231217 73 0.0 0.0 1.02 1.69 1.69 95
20260905230717 72 49 0.0 0.0 1.37 1.69 1.69 95
20260905230218 72 0.0 0.0 1.51 1.69 1.69 95
20260905225736 72 304 2.6 2.6 1.52 1.69 1.69 94
20260905225218 72 175 0.0 1.7 1.53 1.69 1.69 94
20260905224738 72 260 1.7 2.6 1.62 1.69 1.69 94
20260905224218 72 248 2.6 4.3 1.68 1.68 1.68 93
20260905223719 71 259 3.5 4.3 1.67 1.67 1.67 94
20260905223219 71 307 2.6 2.6 1.65 1.65 1.65 93
20260905222719 72 314 2.6 3.5 1.56 1.56 1.56 90
20260905222219 72 35 7.8 12.2 1.35 1.35 1.35 91
20260905221719 74 145 7.8 15.6 1.06 1.06 1.06 90
20260905221219 77 75 7.8 9.6 0.66 0.66 0.66 90
20260905220719 79 89 4.3 7.8 0.32 0.32 0.32 84
20260905220219 80 110 2.6 4.3 0.18 0.18 0.18 88
20260905215719 83 116 2.6 4.3 0.17 0.17 0.17 80
20260905215216 89 85 4.3 7.8 0.15 0.15 0.15 68
20260905214717 97 103 2.6 7.0 0.07 0.07 0.07 57
20260905214216 100 226 1.7 3.5 0.00 0.00 0.00 45
20260905213717 101 326 0.9 2.6 0.00 0.00 0.00 39
20260905213216 100 306 0.0 2.6 0.00 0.00 0.00 38
20260905212716 99 319 2.6 5.2 0.00 0.00 0.00 39
20260905212217 99 257 2.6 4.3 0.00 0.00 0.00 41
20260905211717 99 316 2.6 4.3 0.00 0.00 0.00 42
20260905211217 100 291 2.6 3.5 0.00 0.00 0.00 42
20260905210717 100 243 1.7 3.5 0.00 0.00 0.00 40
20260905210217 100 273 2.6 3.5 0.00 0.00 0.00 42
20260905205717 100 242 2.6 4.3 0.00 0.00 0.00 39
20260905205237 100 260 2.6 4.3 0.00 0.00 0.00 40
20260905204717 100 282 3.5 6.1 0.00 0.00 0.00 41
20260905204217 100 250 1.7 3.5 0.00 0.00 0.00 41
20260905203758 101 302 1.7 3.5 0.00 0.00 0.00 40
20260905203218 100 260 1.7 2.6 0.00 0.00 0.00 40
20260905202737 99 285 0.9 1.7 0.00 0.00 0.00 41
20260905202218 100 270 2.6 4.3 0.00 0.00 0.00 41
20260905201758 100 305 1.7 3.5 0.00 0.00 0.00 41
20260905201215 100 251 3.5 7.0 0.00 0.00 0.00 41
20260905200718 100 311 1.7 6.1 0.00 0.00 0.00 41
20260905200215 99 25 0.9 2.6 0.00 0.00 0.00 41
20260905195715 99 307 2.6 5.2 0.00 0.00 0.00 43
20260905195215 100 314 1.7 3.5 0.00 0.00 0.00 42
20260905194715 99 315 2.6 3.5 0.00 0.00 0.00 42
20260905194216 98 313 2.6 3.5 0.00 0.00 0.00 43
20260905193736 99 314 1.7 2.6 0.00 0.00 0.00 44
20260905193216 99 293 1.7 1.7 0.00 0.00 0.00 42
20260905192715 98 290 0.9 1.7 0.00 0.00 0.00 42
20260905192216 98 312 1.7 3.5 0.00 0.00 0.00 43
20260905191716 99 313 2.6 4.3 0.00 0.00 0.00 43
20260905191216 99 292 1.7 3.5 0.00 0.00 0.00 43
20260905190716 99 263 1.7 2.6 0.00 0.00 0.00 42
20260905190216 99 287 1.7 3.5 0.00 0.00 0.00 42
20260905185736 99 264 0.9 2.6 0.00 0.00 0.00 42
20260905185216 99 320 1.7 2.6 0.00 0.00 0.00 44
20260905184716 99 332 0.0 3.5 0.00 0.00 0.00 41
20260905184216 98 279 0.9 3.5 0.00 0.00 0.00 42
20260905183716 98 266 0.0 0.9 0.00 0.00 0.00 42
20260905183216 97 249 0.9 2.6 0.00 0.00 0.00 43
20260905182716 98 87 0.0 0.9 0.00 0.00 0.00 44
20260905182239 98 321 1.7 3.5 0.00 0.00 0.00 45
20260905181716 99 87 1.7 2.6 0.00 0.00 0.00 45
20260905181217 99 313 1.7 3.5 0.00 0.00 0.00 43
20260905180716 98 205 0.9 1.7 0.00 0.00 0.00 44
20260905180217 99 125 0.9 1.7 0.00 0.00 0.00 43
20260905175737 99 311 1.7 4.3 0.00 0.00 0.00 43
20260905175217 99 163 1.7 4.3 0.00 0.00 0.00 43
20260905174717 98 307 0.0 0.9 0.00 0.00 0.00 44
20260905174237 98 321 1.7 4.3 0.00 0.00 0.00 46
20260905173718 97 307 2.6 4.3 0.00 0.00 0.00 45
20260905173217 97 147 1.7 3.5 0.00 0.00 0.00 46
20260905172717 98 66 1.7 3.5 0.00 0.00 0.00 45
20260905172218 97 314 1.7 2.6 0.00 0.00 0.00 46
20260905171718 96 343 0.0 1.7 0.00 0.00 0.00 46
20260905171218 97 314 1.7 2.6 0.00 0.00 0.00 48
20260905170718 97 318 1.7 4.3 0.00 0.00 0.00 47
20260905170215 97 307 0.9 3.5 0.00 0.00 0.00 46
20260905165715 97 314 0.9 2.6 0.00 0.00 0.00 47
20260905165216 96 81 1.7 3.5 0.00 0.00 0.00 48
20260905164715 97 322 0.9 2.6 0.00 0.00 0.00 50
20260905164316 97 309 0.9 2.6 0.00 0.00 0.00 47
20260905163718 97 356 0.0 0.9 0.00 0.00 0.00 47
20260905163215 98 324 1.7 3.5 0.00 0.00 0.00 46
20260905162715 97 66 0.0 1.7 0.00 0.00 0.00 47
20260905162216 96 56 0.9 1.7 0.00 0.00 0.00 47
20260905161715 96 162 1.7 2.6 0.00 0.00 0.00 47
20260905161216 96 331 1.7 2.6 0.00 0.00 0.00 49
20260905160716 95 130 0.9 4.3 0.00 0.00 0.00 49
20260905160216 95 237 2.6 5.2 0.00 0.00 0.00 50
20260905155716 95 85 1.7 5.2 0.00 0.00 0.00 48
20260905155216 95 88 1.7 2.6 0.00 0.00 0.00 49
20260905154716 94 297 1.7 4.3 0.00 0.00 0.00 51
20260905154216 94 47 0.9 3.5 0.00 0.00 0.00 51
20260905153716 95 164 2.6 4.3 0.00 0.00 0.00 49
20260905153216 95 243 0.0 0.0 0.00 0.00 0.00 48
20260905152736 94 326 1.7 3.5 0.00 0.00 0.00 51
20260905152216 92 336 0.0 1.7 0.00 0.00 0.00 52
20260905151717 91 318 1.7 2.6 0.00 0.00 0.00 56
20260905151217 90 328 1.7 2.6 0.00 0.00 0.00 56
20260905150717 90 320 1.7 2.6 0.00 0.00 0.00 56
20260905150217 90 317 3.5 4.3 0.00 0.00 0.00 56
20260905145717 90 288 0.9 2.6 0.00 0.00 0.00 57
20260905145217 90 313 1.7 2.6 0.00 0.00 0.00 58
20260905144737 90 322 2.6 4.3 0.00 0.00 0.00 58
20260905144217 90 327 1.7 1.7 0.00 0.00 0.00 57
20260905143717 90 318 1.7 3.5 0.00 0.00 0.00 60
20260905143217 91 310 2.6 3.5 0.00 0.00 0.00 59
20260905142717 92 99 0.0 2.6 0.00 0.00 0.00 58
20260905142217 91 327 0.9 1.7 0.00 0.00 0.00 58
20260905141717 91 41 0.0 0.9 0.00 0.00 0.00 60
20260905141217 90 326 0.0 0.9 0.00 0.00 0.00 60
20260905140717 90 0.0 0.0 0.00 0.00 0.00 60
20260905140218 89 325 0.0 0.9 0.00 0.00 0.00 61
20260905135718 89 315 0.0 0.9 0.00 0.00 0.00 61
20260905135238 88 0.0 0.0 0.00 0.00 0.00 64
20260905134718 87 357 0.0 0.9 0.00 0.00 0.00 67
20260905134318 87 0.0 0.0 0.00 0.00 0.00 70
20260905133718 85 0.0 0.0 0.00 0.00 0.00 70
20260905133238 84 0.0 0.0 0.00 0.00 0.00 73
20260905132715 83 0.0 0.0 0.00 0.00 0.00 75
20260905132215 83 0.0 0.0 0.00 0.00 0.00 77
20260905131715 82 0.0 0.0 0.00 0.00 0.00 77
20260905131235 81 0.0 0.0 0.00 0.00 0.00 79
20260905130715 81 0.0 0.0 0.00 0.00 0.00 80
20260905130216 80 0.0 0.0 0.00 0.00 0.00 81
20260905125716 79 0.0 0.0 0.00 0.00 0.00 81
20260905125216 79 0.0 0.0 0.00 0.00 0.00 82
20260905124736 78 0.0 0.0 0.00 0.00 0.00 84
20260905124216 77 84 0.0 0.9 0.00 0.00 0.00 85
20260905123716 75 0.0 0.0 0.00 0.00 0.00 89
20260905123216 75 0.0 0.0 0.00 0.00 0.00 91
20260905122716 74 95 0.0 0.9 0.00 0.00 0.00 92
20260905122216 74 54 0.0 0.0 0.00 0.00 0.00 95
20260905121716 73 0.0 0.0 0.00 0.00 0.00 96
20260905121216 72 0.0 0.0 0.00 0.00 0.00 96